Time;durP1;ratioP1;P1;durP2;ratioP2;P2;SDS_P1;SDS_P2;PMS_P1;PMS_P2;Temp;Humidity;BMP_temperature;BMP_pressure;BME280_temperature;BME280_humidity;BME280_pressure;Samples;Min_cycle;Max_cycle;Signal;HPM_P1;HPM_P2
2022/10/09 00:02:24;;;;;;;;;9.25;5.75;;;;;10.82;57.47;101468.19;5070640;28;45505;-87
2022/10/09 00:04:50;;;;;;;;;5.75;5.25;;;;;10.86;58.27;101484.06;5079776;27;45428;-87
2022/10/09 00:07:15;;;;;;;;;5.75;5.75;;;;;10.86;57.84;101495.50;5076577;28;45466;-87
2022/10/09 00:09:40;;;;;;;;;4.00;4.00;;;;;10.88;57.99;101496.38;5059942;27;47237;-86
2022/10/09 00:12:06;;;;;;;;;5.25;5.25;;;;;10.16;58.20;101378.72;5078009;27;46112;-88
2022/10/09 00:14:31;;;;;;;;;5.75;3.50;;;;;11.25;58.34;101570.22;5077979;27;44797;-88
2022/10/09 00:16:56;;;;;;;;;6.25;6.25;;;;;10.10;58.35;101378.75;5078309;27;45507;-88
2022/10/09 00:19:22;;;;;;;;;5.50;4.00;;;;;10.81;58.33;101503.47;5104464;27;47085;-87
2022/10/09 00:21:47;;;;;;;;;5.25;5.00;;;;;10.35;58.06;101429.72;5069556;27;45453;-88
2022/10/09 00:24:12;;;;;;;;;5.25;5.25;;;;;10.76;58.63;101499.97;5092727;27;45477;-88
2022/10/09 00:26:38;;;;;;;;;5.00;5.00;;;;;10.33;58.82;101434.13;5073977;27;45624;-88
2022/10/09 00:29:03;;;;;;;;;5.00;2.50;;;;;10.46;58.48;101458.72;5081685;27;47009;-87
2022/10/09 00:31:29;;;;;;;;;4.50;4.00;;;;;10.01;58.88;101379.66;5095770;27;45629;-87
2022/10/09 00:33:54;;;;;;;;;6.50;4.75;;;;;10.47;58.69;101457.84;5086398;27;45492;-90
2022/10/09 00:36:22;;;;;;;;;5.75;4.25;;;;;10.03;58.99;101382.31;5082245;27;45480;-88
2022/10/09 00:38:49;;;;;;;;;9.00;4.75;;;;;11.08;59.14;101554.44;5083073;27;47565;-87
2022/10/09 00:41:17;;;;;;;;;6.25;5.00;;;;;10.81;59.29;101510.50;5071917;27;45797;-87
2022/10/09 00:43:44;;;;;;;;;6.00;4.00;;;;;11.17;58.82;101575.56;5099520;27;45362;-88
2022/10/09 00:46:46;;;;;;;;;5.00;4.25;;;;;11.14;59.18;101570.25;5097429;27;45537;-87
2022/10/09 00:49:32;;;;;;;;;6.00;3.00;;;;;10.60;59.57;101482.47;5082263;27;46477;-88
2022/10/09 00:52:02;;;;;;;;;4.00;4.00;;;;;11.11;59.57;101578.22;5097329;27;45480;-88
2022/10/09 00:54:30;;;;;;;;;4.25;4.25;;;;;10.46;59.33;101464.00;5082039;27;45374;-87
2022/10/09 00:56:56;;;;;;;;;6.50;4.25;;;;;10.47;59.12;101484.28;5105496;27;45583;-87
2022/10/09 00:59:22;;;;;;;;;6.25;4.75;;;;;10.31;60.05;101446.47;5111461;27;45358;-86
2022/10/09 01:01:48;;;;;;;;;4.25;3.25;;;;;11.03;60.22;101565.03;5066796;27;45954;-88
2022/10/09 01:04:13;;;;;;;;;4.75;4.75;;;;;10.52;60.05;101493.03;5085768;27;45514;-87
2022/10/09 01:07:13;;;;;;;;;8.50;7.50;;;;;10.99;60.22;101562.44;5083100;27;45497;-87
2022/10/09 01:09:44;;;;;;;;;5.25;5.25;;;;;10.95;60.16;101555.41;5095326;27;46562;-87
2022/10/09 01:12:44;;;;;;;;;6.75;5.50;;;;;10.53;59.93;101486.00;5088594;27;45516;-88
2022/10/09 01:15:18;;;;;;;;;8.00;4.00;;;;;10.92;59.89;101544.84;5088919;27;45519;-88
2022/10/09 01:18:07;;;;;;;;;10.50;6.00;;;;;10.88;60.81;101548.41;5096353;27;45548;-88
2022/10/09 01:20:50;;;;;;;;;6.75;6.25;;;;;10.84;60.49;101547.53;5094011;27;48425;-88
2022/10/09 01:23:34;;;;;;;;;6.25;5.75;;;;;10.81;61.38;101559.00;5076826;27;46047;-89
2022/10/09 01:26:30;;;;;;;;;9.00;7.25;;;;;10.80;60.96;101536.09;5080350;27;45398;-88
2022/10/09 01:29:00;;;;;;;;;7.00;5.00;;;;;10.45;61.04;101480.78;5068531;27;45558;-87
2022/10/09 01:31:33;;;;;;;;;5.00;5.00;;;;;10.00;61.00;101414.88;5100556;27;46958;-88
2022/10/09 01:34:00;;;;;;;;;4.75;4.50;;;;;10.16;61.10;101435.94;5078494;27;45427;-87
2022/10/09 01:36:28;;;;;;;;;6.75;5.50;;;;;10.25;61.56;101462.34;5096923;27;45409;-88
2022/10/09 01:38:56;;;;;;;;;8.50;3.50;;;;;10.13;61.65;101437.72;5078980;27;45677;-88
2022/10/09 01:41:22;;;;;;;;;7.00;7.00;;;;;9.42;61.62;101306.00;5072737;27;47145;-87
2022/10/09 01:43:47;;;;;;;;;4.00;3.00;;;;;10.21;61.50;101434.16;5097977;27;45415;-88
2022/10/09 01:46:22;;;;;;;;;4.25;3.00;;;;;9.88;61.20;101377.97;5092820;27;45446;-87
2022/10/09 01:49:08;;;;;;;;;5.00;4.00;;;;;10.62;61.46;101494.75;5064868;27;45408;-88
2022/10/09 01:52:11;;;;;;;;;4.75;3.00;;;;;10.60;61.36;101498.31;5075479;27;47887;-88
2022/10/09 01:54:42;;;;;;;;;3.00;3.00;;;;;10.12;61.44;101420.09;5099882;27;45376;-87
2022/10/09 01:57:12;;;;;;;;;4.00;4.00;;;;;9.97;61.52;101396.41;5078156;28;44823;-87
2022/10/09 01:59:41;;;;;;;;;6.50;3.75;;;;;9.95;61.12;101399.06;5065119;28;45435;-88
2022/10/09 02:02:07;;;;;;;;;7.75;4.50;;;;;9.58;60.79;101332.31;5078981;27;47577;-88
2022/10/09 02:04:35;;;;;;;;;4.00;4.00;;;;;10.09;61.49;101414.84;5077066;27;45450;-87
2022/10/09 02:07:01;;;;;;;;;6.25;4.50;;;;;9.95;62.15;101400.84;5081207;27;45515;-88
2022/10/09 02:09:29;;;;;;;;;4.75;3.25;;;;;10.41;62.41;101473.75;5061784;28;45344;-88
2022/10/09 02:11:59;;;;;;;;;5.25;3.75;;;;;9.84;62.50;101381.50;5058735;28;47147;-88
2022/10/09 02:14:25;;;;;;;;;6.00;6.00;;;;;9.91;62.19;101394.66;5090196;27;45292;-87
2022/10/09 02:17:01;;;;;;;;;4.75;3.00;;;;;9.85;62.35;101385.91;5076116;27;45490;-87
2022/10/09 02:19:35;;;;;;;;;8.00;5.25;;;;;10.08;62.67;101428.94;5089817;27;45511;-88
2022/10/09 02:22:14;;;;;;;;;4.25;3.75;;;;;9.73;62.92;101369.25;5087942;27;45842;-86
2022/10/09 02:24:41;;;;;;;;;8.50;7.00;;;;;9.61;62.96;101348.19;5092865;27;45413;-87
2022/10/09 02:27:08;;;;;;;;;7.00;5.00;;;;;9.40;62.97;101310.41;5080101;27;45478;-87
2022/10/09 02:29:34;;;;;;;;;6.50;4.50;;;;;10.17;62.59;101433.28;5096071;27;45382;-86
2022/10/09 02:32:00;;;;;;;;;5.25;5.25;;;;;10.05;63.54;101415.75;5094908;27;46042;-86
2022/10/09 02:34:25;;;;;;;;;4.00;3.25;;;;;10.06;62.88;101435.97;5080432;27;45533;-87
2022/10/09 02:36:51;;;;;;;;;4.25;4.00;;;;;9.39;63.16;101310.41;5082336;27;45576;-87
2022/10/09 02:39:17;;;;;;;;;5.25;5.25;;;;;9.29;63.80;101303.41;5085988;27;45474;-87
2022/10/09 02:41:42;;;;;;;;;8.50;7.00;;;;;9.42;63.37;101327.09;5066931;28;47849;-87
2022/10/09 02:44:08;;;;;;;;;7.75;3.75;;;;;9.60;63.59;101363.13;5058024;27;45520;-89
2022/10/09 02:46:34;;;;;;;;;3.75;3.50;;;;;10.12;63.79;101432.44;5080656;27;45502;-88
2022/10/09 02:48:59;;;;;;;;;7.00;5.00;;;;;9.12;64.06;101270.03;5070523;28;45477;-88
2022/10/09 02:51:25;;;;;;;;;9.00;5.00;;;;;9.79;63.77;101381.50;5060377;27;45925;-88
2022/10/09 02:53:52;;;;;;;;;6.00;4.50;;;;;10.06;63.47;101429.84;5079933;27;45478;-88
2022/10/09 02:56:18;;;;;;;;;4.25;2.50;;;;;9.55;63.85;101361.38;5075270;27;45422;-88
2022/10/09 02:58:43;;;;;;;;;8.25;7.00;;;;;10.01;64.19;101426.34;5091980;27;45669;-87
2022/10/09 03:01:09;;;;;;;;;7.25;7.25;;;;;9.54;64.15;101351.72;5070033;28;46316;-87
2022/10/09 03:03:34;;;;;;;;;5.00;5.00;;;;;9.42;63.56;101332.38;5058121;28;45371;-88
2022/10/09 03:06:01;;;;;;;;;11.25;7.50;;;;;9.99;63.70;101421.06;5067383;27;45556;-85
2022/10/09 03:08:27;;;;;;;;;8.50;6.75;;;;;9.00;63.78;101260.44;5091822;27;45551;-85
2022/10/09 03:10:52;;;;;;;;;7.25;4.75;;;;;9.65;63.42;101365.72;5056183;27;46970;-84
2022/10/09 03:13:17;;;;;;;;;8.75;8.00;;;;;9.36;64.10;101321.84;5057276;28;45443;-85
2022/10/09 03:15:43;;;;;;;;;6.00;4.50;;;;;9.48;63.76;101335.91;5076195;27;45373;-85
2022/10/09 03:18:08;;;;;;;;;4.00;4.00;;;;;9.56;64.22;101355.22;5067373;28;45440;-85
2022/10/09 03:20:33;;;;;;;;;7.00;5.25;;;;;9.78;63.60;101388.56;5070202;28;47388;-86
2022/10/09 03:22:59;;;;;;;;;6.75;4.50;;;;;9.17;64.31;101299.03;5091097;27;45413;-86
2022/10/09 03:25:24;;;;;;;;;4.25;3.75;;;;;9.74;64.10;101394.72;5087619;27;45570;-85
2022/10/09 03:27:49;;;;;;;;;10.00;5.50;;;;;9.07;64.39;101283.25;5092674;27;46733;-85
2022/10/09 03:30:15;;;;;;;;;5.50;5.50;;;;;9.65;64.06;101394.78;5093558;27;45487;-85
2022/10/09 03:32:40;;;;;;;;;3.50;3.00;;;;;8.83;64.06;101256.94;5091313;27;45652;-85
2022/10/09 03:35:06;;;;;;;;;4.00;3.00;;;;;9.70;64.10;101400.03;5094895;27;45393;-86
2022/10/09 03:37:31;;;;;;;;;2.75;2.75;;;;;8.90;63.79;101263.97;5094473;27;45438;-85
2022/10/09 03:39:57;;;;;;;;;3.75;3.00;;;;;8.98;63.95;101280.63;5075817;27;48026;-85
2022/10/09 03:42:23;;;;;;;;;3.25;3.25;;;;;9.67;63.66;101395.66;5081693;27;45524;-85
2022/10/09 03:44:48;;;;;;;;;3.00;3.00;;;;;9.06;64.22;101289.41;5095651;27;45576;-85
2022/10/09 03:47:14;;;;;;;;;7.00;4.75;;;;;9.25;63.99;101329.78;5092928;27;45552;-85
2022/10/09 03:49:39;;;;;;;;;3.50;3.25;;;;;9.35;63.63;101343.84;5090049;27;45612;-84
2022/10/09 03:52:04;;;;;;;;;3.25;3.25;;;;;9.50;64.19;101378.97;5082583;27;45544;-86
2022/10/09 03:54:30;;;;;;;;;2.75;2.75;;;;;8.96;64.20;101279.75;5095900;27;45499;-85
2022/10/09 03:56:55;;;;;;;;;4.00;4.00;;;;;8.97;64.66;101296.44;5099462;27;45544;-84
2022/10/09 03:59:20;;;;;;;;;6.75;6.00;;;;;9.43;64.13;101370.22;5077270;28;45395;-85
2022/10/09 04:01:46;;;;;;;;;3.00;3.00;;;;;8.55;64.41;101225.38;5083135;27;45442;-85
2022/10/09 04:04:11;;;;;;;;;3.00;2.50;;;;;9.36;64.35;101364.06;5094055;27;45385;-85
2022/10/09 04:06:37;;;;;;;;;3.00;3.00;;;;;9.44;64.82;101393.06;5098084;27;45439;-85
2022/10/09 04:09:02;;;;;;;;;3.50;3.50;;;;;9.42;64.51;101382.50;5098928;27;46526;-86
2022/10/09 04:11:27;;;;;;;;;3.00;3.00;;;;;8.94;65.24;101299.97;5081809;27;45501;-87
2022/10/09 04:13:53;;;;;;;;;3.75;3.75;;;;;8.50;65.45;101240.28;5078276;27;45505;-87
2022/10/09 04:16:18;;;;;;;;;6.25;5.00;;;;;9.07;64.95;101325.44;5071636;27;45742;-87
2022/10/09 04:18:44;;;;;;;;;2.00;2.00;;;;;8.81;65.27;101274.53;5078248;27;48424;-87
2022/10/09 04:21:09;;;;;;;;;3.00;3.00;;;;;9.21;64.53;101348.28;5095268;27;45525;-87
2022/10/09 04:23:35;;;;;;;;;3.00;3.00;;;;;9.36;65.61;101387.81;5078839;27;45818;-87
2022/10/09 04:26:00;;;;;;;;;3.25;3.00;;;;;8.77;65.08;101283.31;5080337;27;45500;-87
2022/10/09 04:28:28;;;;;;;;;5.00;4.00;;;;;9.34;65.28;101384.31;5082432;27;46943;-87
2022/10/09 04:30:54;;;;;;;;;6.50;6.50;;;;;9.18;65.14;101346.50;5072490;27;45418;-87
2022/10/09 04:33:19;;;;;;;;;3.75;3.75;;;;;8.74;65.43;101283.31;5086199;27;45379;-87
2022/10/09 04:35:48;;;;;;;;;4.25;4.25;;;;;8.59;65.64;101248.16;5088377;27;45369;-87
2022/10/09 04:38:13;;;;;;;;;3.00;3.00;;;;;8.71;65.98;101279.81;5075568;28;47268;-87
2022/10/09 04:40:39;;;;;;;;;4.00;4.00;;;;;8.85;65.33;101307.88;5059561;27;45865;-86
2022/10/09 04:43:05;;;;;;;;;4.00;4.00;;;;;8.70;65.79;101288.59;5069941;27;45477;-86
2022/10/09 04:45:31;;;;;;;;;6.25;5.00;;;;;8.68;66.24;101274.53;5088431;27;45397;-86
2022/10/09 04:47:56;;;;;;;;;6.00;4.00;;;;;8.95;65.58;101317.53;5085088;27;45411;-86
2022/10/09 04:50:22;;;;;;;;;5.50;4.50;;;;;8.74;65.52;101293.84;5084342;27;45458;-87
2022/10/09 04:52:48;;;;;;;;;8.25;4.75;;;;;8.25;65.93;101219.19;5079201;27;45454;-87
2022/10/09 04:55:16;;;;;;;;;8.00;5.00;;;;;9.21;66.15;101374.66;5071029;27;45511;-87
2022/10/09 04:57:41;;;;;;;;;6.50;4.25;;;;;8.13;65.44;101187.59;5077114;28;47789;-87
2022/10/09 05:00:07;;;;;;;;;7.50;5.25;;;;;8.41;65.81;101245.53;5085592;27;45391;-87
2022/10/09 05:02:32;;;;;;;;;5.25;5.25;;;;;8.70;65.67;101278.03;5076403;27;45393;-86
2022/10/09 05:04:58;;;;;;;;;4.00;4.00;;;;;9.01;65.78;101338.63;5075427;27;45595;-86
2022/10/09 05:07:23;;;;;;;;;6.00;4.75;;;;;8.28;65.54;101220.97;5078913;27;46757;-87
2022/10/09 05:09:49;;;;;;;;;9.00;7.00;;;;;8.32;65.63;101220.97;5076209;27;45463;-84
2022/10/09 05:12:14;;;;;;;;;5.25;5.25;;;;;8.71;66.25;101278.91;5076796;27;45610;-84
2022/10/09 05:14:40;;;;;;;;;4.00;4.00;;;;;8.10;66.47;101190.22;5083718;27;45495;-85
2022/10/09 05:17:06;;;;;;;;;4.75;4.75;;;;;8.75;66.51;101291.22;5073636;28;47532;-85
2022/10/09 05:19:32;;;;;;;;;7.25;6.25;;;;;8.89;66.21;101314.91;5075863;28;45435;-84
2022/10/09 05:22:00;;;;;;;;;3.75;3.75;;;;;8.09;66.78;101185.84;5074045;28;45363;-85
2022/10/09 05:24:27;;;;;;;;;6.00;3.50;;;;;8.80;66.38;101299.13;5087737;27;45480;-85
2022/10/09 05:26:52;;;;;;;;;9.25;6.75;;;;;9.05;67.14;101336.88;5078148;27;47276;-85
2022/10/09 05:29:17;;;;;;;;;5.25;5.00;;;;;9.02;66.67;101335.13;5096776;27;45382;-84
2022/10/09 05:31:43;;;;;;;;;4.50;3.00;;;;;8.92;67.49;101314.06;5097286;27;45394;-85
2022/10/09 05:34:09;;;;;;;;;7.00;5.00;;;;;8.91;66.98;101323.69;5095655;27;45592;-85
2022/10/09 05:36:35;;;;;;;;;6.00;6.00;;;;;8.31;66.79;101221.81;5059499;28;47243;-85
2022/10/09 05:39:00;;;;;;;;;5.00;4.00;;;;;8.13;66.84;101206.03;5057912;28;45454;-85
2022/10/09 05:41:28;;;;;;;;;6.50;6.00;;;;;8.71;66.98;101294.72;5058891;28;45375;-85
2022/10/09 05:43:54;;;;;;;;;4.25;3.50;;;;;8.40;66.74;101235.88;5090751;27;45572;-84
2022/10/09 05:46:24;;;;;;;;;7.00;6.75;;;;;7.94;66.51;101169.19;5096192;27;45493;-85
2022/10/09 05:48:59;;;;;;;;;4.75;4.00;;;;;8.95;66.83;101341.28;5061633;27;45465;-85
2022/10/09 05:51:32;;;;;;;;;4.50;4.00;;;;;8.92;66.95;101336.00;5076357;28;45511;-85
2022/10/09 05:54:00;;;;;;;;;4.50;4.50;;;;;8.84;67.27;101317.56;5077101;27;45418;-85
2022/10/09 05:56:26;;;;;;;;;6.50;5.25;;;;;8.89;66.85;101336.88;5079358;27;47442;-84
2022/10/09 05:58:59;;;;;;;;;8.50;7.00;;;;;8.89;67.13;101328.09;5096452;27;45383;-85
2022/10/09 06:01:27;;;;;;;;;6.00;6.00;;;;;8.14;66.98;101210.44;5085158;27;45414;-85
2022/10/09 06:03:55;;;;;;;;;5.50;5.00;;;;;8.89;66.95;101325.47;5057900;28;45536;-85
2022/10/09 06:06:23;;;;;;;;;6.00;6.00;;;;;8.18;66.82;101209.53;5075355;27;46427;-85
2022/10/09 06:08:50;;;;;;;;;6.25;6.25;;;;;8.87;67.34;101327.25;5074742;28;45693;-85
2022/10/09 06:11:17;;;;;;;;;7.50;6.25;;;;;8.29;66.95;101227.97;5082450;27;45533;-85
2022/10/09 06:13:43;;;;;;;;;4.50;4.50;;;;;8.34;67.66;101227.09;5061724;28;45752;-84
2022/10/09 06:16:13;;;;;;;;;8.00;7.00;;;;;8.91;67.37;101318.41;5057573;28;47321;-86
2022/10/09 06:18:40;;;;;;;;;3.75;3.75;;;;;8.80;66.69;101299.13;5057608;28;45472;-86
2022/10/09 06:21:06;;;;;;;;;5.25;4.00;;;;;8.59;66.55;101253.44;5078180;28;45596;-88
2022/10/09 06:23:32;;;;;;;;;8.50;5.25;;;;;9.12;66.80;101322.78;5081697;27;45682;-87
2022/10/09 06:26:01;;;;;;;;;4.50;4.00;;;;;8.04;66.77;101137.56;5080462;27;47525;-87
2022/10/09 06:28:31;;;;;;;;;12.50;7.00;;;;;8.83;66.33;101239.34;5083934;27;45442;-87
2022/10/09 06:31:05;;;;;;;;;5.25;4.50;;;;;8.76;65.33;101191.91;5081124;27;45412;-88
2022/10/09 06:33:33;;;;;;;;;8.00;8.00;;;;;9.45;65.39;101288.41;5085433;27;45440;-86
2022/10/09 06:36:01;;;;;;;;;10.75;9.50;;;;;9.15;64.59;101221.69;5070094;27;47563;-84
2022/10/09 06:38:27;;;;;;;;;10.25;6.50;;;;;9.35;64.83;101234.78;5079015;27;45465;-85
2022/10/09 06:40:52;;;;;;;;;6.75;5.25;;;;;9.75;64.43;101287.41;5077542;27;45421;-84
2022/10/09 06:43:17;;;;;;;;;5.50;5.50;;;;;9.36;64.12;101204.88;5062169;28;45559;-85
2022/10/09 06:45:43;;;;;;;;;10.25;7.00;;;;;9.51;63.80;101209.22;5083430;27;46578;-85
2022/10/09 06:48:08;;;;;;;;;6.75;6.75;;;;;9.83;63.47;101255.66;5083414;27;47156;-86
2022/10/09 06:50:35;;;;;;;;;7.25;7.00;;;;;10.16;63.09;101288.00;5089004;27;45342;-84
2022/10/09 06:53:04;;;;;;;;;10.25;7.50;;;;;9.99;62.72;101232.66;5089666;27;45469;-84
2022/10/09 06:55:30;;;;;;;;;10.50;9.50;;;;;9.88;62.36;101201.06;5092311;27;48072;-84
2022/10/09 06:57:55;;;;;;;;;8.75;7.75;;;;;10.07;61.36;101194.75;5095229;27;45501;-84
2022/10/09 07:00:21;;;;;;;;;9.00;7.50;;;;;9.83;60.36;101107.81;5082751;27;45570;-86
2022/10/09 07:02:46;;;;;;;;;9.00;5.25;;;;;10.29;60.40;101162.84;5098409;27;45466;-90
2022/10/09 07:05:12;;;;;;;;;6.00;5.25;;;;;11.20;60.00;101280.91;5077876;27;47811;-84
2022/10/09 07:07:40;;;;;;;;;5.50;5.50;;;;;11.31;59.02;101249.03;5096979;27;45389;-85
2022/10/09 07:10:08;;;;;;;;;8.75;4.50;;;;;11.50;57.67;101231.16;5093870;27;45418;-85
2022/10/09 07:12:35;;;;;;;;;5.00;4.00;;;;;11.58;57.03;101215.16;5092264;27;45542;-85
2022/10/09 07:15:00;;;;;;;;;5.00;4.00;;;;;11.52;56.42;101219.66;5083861;27;45594;-85
2022/10/09 07:17:26;;;;;;;;;5.50;4.75;;;;;11.37;57.05;101186.34;5077542;27;45977;-87
2022/10/09 07:19:51;;;;;;;;;3.50;3.50;;;;;11.36;56.14;101117.53;5091118;27;45586;-85
2022/10/09 07:22:17;;;;;;;;;5.00;3.00;;;;;12.66;55.69;101221.41;5087873;27;45603;-85
2022/10/09 07:24:42;;;;;;;;;5.25;4.25;;;;;12.22;54.43;101163.88;5089071;27;47566;-85
2022/10/09 07:27:08;;;;;;;;;4.00;4.00;;;;;13.08;54.64;101282.53;5070793;28;45745;-85
2022/10/09 07:29:33;;;;;;;;;4.75;4.25;;;;;13.08;53.48;101242.72;5086019;27;45482;-86
2022/10/09 07:31:59;;;;;;;;;3.00;3.00;;;;;12.88;54.08;101201.53;5075103;27;45565;-86
2022/10/09 07:34:24;;;;;;;;;7.50;5.00;;;;;12.50;53.04;101115.63;5079306;28;45612;-86
2022/10/09 07:36:49;;;;;;;;;3.75;3.75;;;;;13.67;52.46;101208.75;5087020;27;46012;-85
2022/10/09 07:39:18;;;;;;;;;4.00;4.00;;;;;14.10;52.73;101259.16;5085855;27;45361;-85
2022/10/09 07:41:43;;;;;;;;;7.25;4.50;;;;;13.53;51.79;101173.66;5059321;27;45471;-86
2022/10/09 07:44:10;;;;;;;;;3.50;3.50;;;;;13.86;52.03;101214.50;5087686;27;48366;-89
2022/10/09 07:46:36;;;;;;;;;4.50;3.25;;;;;14.15;51.70;101242.19;5085300;27;45851;-85
2022/10/09 07:49:02;;;;;;;;;5.50;5.50;;;;;14.07;50.76;101232.63;5093952;27;45538;-86
2022/10/09 07:51:29;;;;;;;;;5.75;5.50;;;;;14.16;51.74;101217.31;5089709;27;45408;-83
2022/10/09 07:53:56;;;;;;;;;5.75;4.75;;;;;14.47;50.93;101234.28;5088746;27;45507;-85
2022/10/09 07:56:32;;;;;;;;;5.25;4.25;;;;;14.81;50.19;101268.03;5081983;27;45500;-85
2022/10/09 07:59:19;;;;;;;;;7.25;5.00;;;;;14.36;49.49;101178.72;5089104;27;45510;-85
2022/10/09 08:01:44;;;;;;;;;7.00;5.00;;;;;14.88;49.44;101200.44;5089929;27;45511;-85
2022/10/09 08:04:10;;;;;;;;;3.25;3.25;;;;;15.03;48.39;101156.50;5077062;27;47627;-88
2022/10/09 08:06:35;;;;;;;;;5.75;5.25;;;;;15.83;47.09;101182.53;5068224;28;45272;-89
2022/10/09 08:09:04;;;;;;;;;5.00;4.50;;;;;17.42;44.59;101249.09;5060222;28;44905;-88
2022/10/09 08:11:30;;;;;;;;;4.75;4.75;;;;;18.60;42.65;101248.81;5064395;27;45307;-89
2022/10/09 08:13:55;;;;;;;;;3.00;3.00;;;;;19.14;41.43;101169.63;5079808;27;45520;-89
2022/10/09 08:16:24;;;;;;;;;5.75;5.00;;;;;20.33;40.22;101174.63;5082805;27;45506;-89
2022/10/09 08:18:57;;;;;;;;;6.00;6.00;;;;;21.17;38.38;101162.19;5080282;27;45544;-89
2022/10/09 08:21:22;;;;;;;;;6.50;5.00;;;;;21.82;37.15;101160.28;5079039;27;45362;-89
2022/10/09 08:23:52;;;;;;;;;5.75;5.75;;;;;22.61;35.38;101177.19;5077826;27;47066;-89
2022/10/09 08:26:19;;;;;;;;;8.00;5.50;;;;;22.65;36.00;101051.25;5076908;27;45365;-89
2022/10/09 08:29:05;;;;;;;;;6.00;6.00;;;;;23.69;34.68;101143.41;5071388;28;45462;-90
2022/10/09 08:31:34;;;;;;;;;9.75;5.75;;;;;24.38;32.22;101154.09;5058479;28;45609;-90
2022/10/09 08:34:02;;;;;;;;;7.50;6.25;;;;;24.74;32.57;101152.53;5064772;27;47480;-89
2022/10/09 08:36:28;;;;;;;;;8.00;7.00;;;;;24.78;33.34;101085.59;5070482;28;45510;-90
2022/10/09 08:38:54;;;;;;;;;6.50;6.50;;;;;25.04;30.51;101069.31;5064612;27;45331;-90
2022/10/09 08:41:31;;;;;;;;;5.00;5.00;;;;;26.02;29.70;101205.47;5077457;27;45457;-90
2022/10/09 08:44:35;;;;;;;;;9.00;7.00;;;;;26.20;30.96;101161.75;5073031;28;47371;-90
2022/10/09 08:47:15;;;;;;;;;8.00;6.50;;;;;26.05;29.96;101110.50;5076686;27;45539;-90
2022/10/09 08:49:57;;;;;;;;;6.25;6.25;;;;;26.48;29.13;101178.56;5061067;28;45327;-90
2022/10/09 08:52:22;;;;;;;;;5.00;5.00;;;;;26.31;29.73;101191.56;5079026;27;45221;-89
2022/10/09 08:54:48;;;;;;;;;6.75;5.75;;;;;25.00;29.29;101042.53;5060820;28;46572;-90
2022/10/09 08:57:15;;;;;;;;;9.00;5.00;;;;;25.64;30.38;101192.94;5063133;28;45431;-89
2022/10/09 08:59:42;;;;;;;;;5.75;5.00;;;;;25.41;31.41;101115.34;5062850;28;45534;-89
2022/10/09 09:02:17;;;;;;;;;7.75;5.75;;;;;25.94;29.72;101186.22;5063251;28;45606;-90
2022/10/09 09:04:59;;;;;;;;;5.50;4.50;;;;;25.35;30.40;101067.97;5061435;28;48417;-90
2022/10/09 09:07:53;;;;;;;;;6.25;6.25;;;;;26.42;29.76;101177.22;5061651;28;45385;-90
2022/10/09 09:11:09;;;;;;;;;3.75;3.75;;;;;26.01;29.01;101092.75;5066255;28;45388;-90
2022/10/09 09:13:47;;;;;;;;;5.25;5.25;;;;;26.31;29.22;101169.03;5032221;28;44886;-89
2022/10/09 09:16:23;;;;;;;;;7.00;5.75;;;;;25.79;30.13;101169.28;5033602;28;47303;-89
2022/10/09 09:18:57;;;;;;;;;6.50;6.00;;;;;25.49;29.94;101096.69;5016061;28;45598;-89
2022/10/09 09:21:39;;;;;;;;;6.50;6.50;;;;;25.10;30.21;101074.28;5016422;28;45502;-90
2022/10/09 09:24:13;;;;;;;;;5.25;4.75;;;;;24.73;30.96;101017.53;5018031;28;45426;-89
2022/10/09 09:26:42;;;;;;;;;6.25;4.25;;;;;24.59;30.45;100981.56;5027406;28;45603;-89
2022/10/09 09:29:14;;;;;;;;;4.25;4.25;;;;;25.32;31.96;101154.75;5027029;28;45546;-89
2022/10/09 09:31:40;;;;;;;;;7.00;4.00;;;;;24.95;30.38;101069.03;5047140;28;45296;-89
2022/10/09 09:34:38;;;;;;;;;6.25;5.25;;;;;25.52;30.57;101164.97;5046648;28;45408;-84
2022/10/09 09:37:04;;;;;;;;;6.75;6.75;;;;;25.84;29.69;101142.75;5032905;28;45507;-85
2022/10/09 09:39:33;;;;;;;;;6.25;6.25;;;;;26.34;31.98;101142.59;5034098;28;45476;-85
2022/10/09 09:42:06;;;;;;;;;7.00;5.50;;;;;26.66;29.00;101076.91;5033193;28;45472;-85
2022/10/09 09:44:34;;;;;;;;;5.75;5.75;;;;;26.70;29.39;101116.31;5027522;28;45527;-85
2022/10/09 09:47:00;;;;;;;;;7.50;6.00;;;;;26.17;29.04;100975.97;5039205;27;46622;-85
2022/10/09 09:49:28;;;;;;;;;5.00;5.00;;;;;26.62;29.25;101050.97;5100634;27;45389;-89
2022/10/09 09:51:56;;;;;;;;;4.00;4.00;;;;;26.93;28.05;101062.06;5099133;27;45483;-89
2022/10/09 09:54:24;;;;;;;;;6.25;5.25;;;;;26.49;28.44;100961.69;5066122;27;45654;-89
2022/10/09 09:56:53;;;;;;;;;6.00;6.00;;;;;27.37;28.06;101054.84;5078925;28;48254;-88
2022/10/09 09:59:40;;;;;;;;;4.75;4.00;;;;;27.59;27.69;101097.34;5067229;28;45913;-86
2022/10/09 10:02:05;;;;;;;;;5.00;4.00;;;;;27.62;27.97;101104.38;5077942;27;45339;-85
2022/10/09 10:04:31;;;;;;;;;2.75;2.75;;;;;26.52;28.60;100966.00;5105065;27;45334;-90
2022/10/09 10:06:57;;;;;;;;;1.75;1.75;;;;;26.79;28.12;100992.72;5073653;28;47294;-90
2022/10/09 10:09:23;;;;;;;;;4.00;4.00;;;;;26.59;28.87;100932.00;5064766;28;45460;-90
2022/10/09 10:11:59;;;;;;;;;4.25;4.25;;;;;27.18;28.43;101011.22;5060059;27;45336;-90
2022/10/09 10:14:25;;;;;;;;;5.00;3.25;;;;;27.46;28.65;101086.63;5081970;27;45575;-90
2022/10/09 10:16:52;;;;;;;;;4.00;4.00;;;;;26.51;29.62;101002.19;5083615;27;46780;-89
2022/10/09 10:19:30;;;;;;;;;2.00;2.00;;;;;26.55;30.39;101083.13;5070980;28;45884;-89
2022/10/09 10:21:58;;;;;;;;;3.75;3.50;;;;;26.27;30.41;101076.34;5077725;27;45362;-89
2022/10/09 10:24:30;;;;;;;;;4.25;4.00;;;;;25.57;31.19;101077.16;5080375;27;45602;-89
2022/10/09 10:27:04;;;;;;;;;4.00;4.00;;;;;24.75;31.99;101015.56;5077168;28;48316;-89
2022/10/09 10:29:39;;;;;;;;;6.00;3.25;;;;;24.97;31.62;101075.19;5064802;28;45327;-90
2022/10/09 10:32:27;;;;;;;;;3.75;3.75;;;;;23.65;33.15;100890.16;5076425;27;45544;-89
2022/10/09 10:35:10;;;;;;;;;3.50;3.50;;;;;24.02;32.94;101033.31;5069086;27;45354;-88
2022/10/09 10:38:05;;;;;;;;;3.00;3.00;;;;;23.51;33.80;101069.97;5101953;27;45398;-88
2022/10/09 10:41:16;;;;;;;;;3.50;3.50;;;;;23.06;34.38;101061.22;5090317;27;45848;-89
2022/10/09 10:44:00;;;;;;;;;3.00;3.00;;;;;22.35;35.88;100974.16;5064045;27;45668;-88
2022/10/09 10:47:01;;;;;;;;;4.50;4.50;;;;;23.16;35.26;101061.53;5063527;27;45680;-88
2022/10/09 10:49:27;;;;;;;;;5.00;5.00;;;;;22.93;35.64;100982.13;5018988;28;46604;-87
2022/10/09 10:52:18;;;;;;;;;0.75;0.00;;;;;22.74;35.16;100995.94;5020687;28;45854;-89
2022/10/09 10:55:12;;;;;;;;;4.00;4.00;;;;;23.06;35.29;101050.44;5033922;28;45470;-85
2022/10/09 10:58:06;;;;;;;;;4.75;4.75;;;;;22.43;35.55;101039.16;5040681;28;45774;-88
2022/10/09 11:00:37;;;;;;;;;4.50;4.50;;;;;22.38;36.64;101041.28;5044528;28;45428;-87
2022/10/09 11:03:12;;;;;;;;;4.25;4.25;;;;;22.46;35.99;101030.88;5031538;28;45431;-90
2022/10/09 11:06:11;;;;;;;;;5.50;4.00;;;;;22.29;35.84;101028.34;5042400;28;45345;-91
2022/10/09 11:08:55;;;;;;;;;3.75;3.75;;;;;21.68;35.96;100850.06;5037729;28;45514;-89
2022/10/09 11:11:36;;;;;;;;;2.75;2.75;;;;;22.54;36.28;100949.63;5036205;28;47355;-89
2022/10/09 11:14:08;;;;;;;;;2.75;2.25;;;;;23.54;34.54;101005.03;5029902;28;45307;-88
2022/10/09 11:17:10;;;;;;;;;4.25;4.25;;;;;24.08;34.89;101000.47;5036263;28;45450;-92
2022/10/09 11:19:59;;;;;;;;;4.00;4.00;;;;;23.78;34.24;100918.00;5001455;28;45211;-88
2022/10/09 11:23:07;;;;;;;;;6.00;4.00;;;;;24.45;33.86;100987.94;5021558;28;46923;-87
2022/10/09 11:25:48;;;;;;;;;3.50;3.50;;;;;23.87;33.44;100874.19;5078053;27;45407;-89
2022/10/09 11:28:23;;;;;;;;;5.00;5.00;;;;;24.41;33.01;100943.22;5078211;28;45345;-90
2022/10/09 11:31:26;;;;;;;;;4.75;3.25;;;;;24.48;32.37;100944.50;5066442;27;45664;-89
2022/10/09 11:33:59;;;;;;;;;5.25;5.00;;;;;23.72;33.12;100824.00;5047781;28;45506;-89
2022/10/09 11:36:40;;;;;;;;;3.50;3.50;;;;;24.85;32.51;100967.97;5038938;28;45311;-89
2022/10/09 11:39:13;;;;;;;;;4.00;4.00;;;;;24.94;33.17;100961.88;5046567;28;45396;-88
2022/10/09 11:41:40;;;;;;;;;4.00;4.00;;;;;24.97;33.11;100872.44;5066076;28;45747;-91
2022/10/09 11:44:24;;;;;;;;;4.75;3.00;;;;;26.24;32.28;100951.97;5067911;28;45430;-88
2022/10/09 11:46:55;;;;;;;;;4.50;4.50;;;;;26.72;30.11;100951.72;5053972;28;45585;-88